ADDS METAR Data INFO
IDs: Format: Raw Decoded Include TAF

Data at: 0100 UTC 22 Oct 2017

KMYZ 220055Z AUTO 35008KT 10SM CLR 13/05 A2994 RMK AO2 LTG DSNT E THRU S
KMYZ 220035Z AUTO 35011G16KT 10SM CLR 14/05 A2992 RMK AO2 LTG DSNT E THRU S
KMYZ 220015Z AUTO 34012G20KT 10SM CLR 15/05 A2989 RMK AO2 LTG DSNT E AND S
KMYZ 212355Z AUTO 34011G20KT 10SM CLR 15/05 A2988 RMK AO2 LTG DSNT NE THRU S
KMYZ 212335Z AUTO 34015G21KT 10SM CLR 16/06 A2986 RMK AO2 LTG DSNT NE AND SE
KMYZ 212315Z AUTO 34014G18KT 10SM CLR 16/06 A2987 RMK AO2 LTG DSNT NE AND SE
KMYZ 212255Z AUTO 33015G22KT 10SM CLR 16/06 A2987 RMK AO2 LTG DSNT NE THRU S
KMYZ 212235Z AUTO 33018KT 10SM SCT070 17/06 A2985 RMK AO2 LTG DSNT E THRU S
KMYZ 212215Z AUTO 32016G25KT 10SM SCT070 17/07 A2984 RMK AO2 LTG DSNT E AND SE
KMYZ 212155Z AUTO 33016G26KT 10SM BKN070 18/07 A2981 RMK AO2 LTG DSNT E AND SE
KMYZ 212135Z AUTO 33020G23KT 10SM BKN055 BKN070 20/07 A2980 RMK AO2 LTG DSNT NE THRU SE
KMYZ 212115Z AUTO 32018G24KT 10SM BKN055 19/07 A2979 RMK AO2 LTG DSNT E AND SE
KMYZ 212055Z AUTO 32017G27KT 10SM VCTS SCT055 SCT090 20/08 A2978 RMK AO2 LTG DSNT NE THRU SE
KMYZ 212035Z AUTO 31019G24KT 10SM SCT049 OVC090 21/08 A2977 RMK AO2 LTG DSNT SE AND S
KMYZ 212015Z AUTO 30016G22KT 10SM OVC047 21/10 A2976 RMK AO2
KMYZ 211955Z AUTO 25010KT 10SM SCT043 SCT050 OVC070 21/11 A2974 RMK AO2
KMYZ 211935Z AUTO 25009G15KT 10SM SCT060 OVC070 22/11 A2974 RMK AO2
KMYZ 211915Z AUTO 25009KT 10SM SCT050 OVC060 21/10 A2974 RMK AO2
KMYZ 211855Z AUTO 25010KT 10SM SCT043 BKN048 OVC070 21/11 A2973 RMK AO2
KMYZ 211835Z AUTO 26009G19KT 10SM SCT035 BKN043 OVC050 21/12 A2973 RMK AO2
KMYZ 211815Z AUTO 20016G29KT 10SM SCT032 BKN049 OVC070 23/17 A2971 RMK AO2
KMYZ 211755Z AUTO 20018G25KT 10SM SCT030 SCT039 OVC060 23/17 A2971 RMK AO2
KMYZ 211735Z AUTO 20020G27KT 10SM BKN030 BKN044 OVC060 23/17 A2971 RMK AO2
KMYZ 211715Z AUTO 20019G26KT 10SM SCT028 SCT033 OVC060 24/18 A2970 RMK AO2
KMYZ 211655Z AUTO 21021G29KT 10SM SCT025 BKN060 23/17 A2970 RMK AO2
KMYZ 211635Z AUTO 19019G26KT 10SM SCT025 BKN060 23/17 A2970 RMK AO2
KMYZ 211615Z AUTO 20018G28KT 10SM BKN025 BKN033 BKN039 23/17 A2970 RMK AO2
KMYZ 211555Z AUTO 19021G28KT 10SM OVC023 23/17 A2969 RMK AO2
KMYZ 211535Z AUTO 20018G28KT 10SM BKN021 BKN031 OVC038 22/17 A2970 RMK AO2
KMYZ 211515Z AUTO 20018G27KT 10SM BKN021 BKN026 22/17 A2969 RMK AO2
KMYZ 211455Z AUTO 19019G26KT 10SM OVC021 21/17 A2969 RMK AO2
KMYZ 211435Z AUTO 19015G27KT 10SM OVC019 20/17 A2970 RMK AO2
KMYZ 211415Z AUTO 20017G25KT 10SM OVC019 20/17 A2970 RMK AO2
KMYZ 211355Z AUTO 18018G30KT 10SM OVC021 20/17 A2966 RMK AO2
KMYZ 211335Z AUTO 17016G28KT 10SM OVC021 20/17 A2965 RMK AO2
KMYZ 211315Z AUTO 18018G26KT 10SM OVC021 20/17 A2966 RMK AO2
KMYZ 211255Z AUTO 18020G27KT 10SM OVC021 20/17 A2966 RMK AO2
KMYZ 211235Z AUTO 18023G26KT 10SM OVC021 20/17 A2965 RMK AO2
KMYZ 211215Z AUTO 18017G26KT 10SM OVC021 20/17 A2965 RMK AO2
KMYZ 211155Z AUTO 18018G27KT 10SM OVC021 20/17 A2965 RMK AO2
KMYZ 211135Z AUTO 18019G30KT 10SM BKN021 OVC027 20/17 A2965 RMK AO2
KMYZ 211115Z AUTO 18019G25KT 10SM BKN021 20/16 A2965 RMK AO2
KMYZ 211055Z AUTO 18019G30KT 10SM BKN021 OVC110 20/16 A2965 RMK AO2
KMYZ 211035Z AUTO 18018G25KT 10SM BKN021 BKN026 OVC110 20/16 A2965 RMK AO2 LTG DSNT NE
KMYZ 211015Z AUTO 18018G26KT 10SM BKN019 OVC026 20/16 A2966 RMK AO2 LTG DSNT NE
KMYZ 210955Z AUTO 18020G27KT 10SM OVC019 20/16 A2966 RMK AO2
KMYZ 210935Z AUTO 18018G26KT 10SM OVC019 20/16 A2966 RMK AO2
KMYZ 210915Z AUTO 18016G26KT 10SM OVC021 20/16 A2966 RMK AO2
KMYZ 210855Z AUTO 18017G30KT 10SM OVC021 20/16 A2966 RMK AO2 LTG DSNT NE
KMYZ 210835Z AUTO 18017G26KT 10SM OVC023 20/16 A2967 RMK AO2
KMYZ 210815Z AUTO 18020G26KT 10SM OVC023 20/16 A2968 RMK AO2
KMYZ 210755Z AUTO 19017G28KT 10SM BKN025 BKN120 20/16 A2968 RMK AO2 LTG DSNT NE AND E
KMYZ 210735Z AUTO 19018G26KT 10SM BKN025 BKN120 20/16 A2968 RMK AO2 LTG DSNT E
KMYZ 210715Z AUTO 19019G25KT 10SM BKN025 20/16 A2968 RMK AO2
KMYZ 210655Z AUTO 18019G27KT 10SM BKN027 20/16 A2969 RMK AO2 LTG DSNT NE
KMYZ 210635Z AUTO 18018G27KT 10SM SCT027 20/16 A2969 RMK AO2 LTG DSNT NE
KMYZ 210615Z AUTO 18023G28KT 10SM SCT030 20/15 A2969 RMK AO2 LTG DSNT NE
KMYZ 210555Z AUTO 18018G28KT 10SM VCTS BKN032 BKN120 20/15 A2969 RMK AO2 LTG DSNT N THRU E
KMYZ 210535Z AUTO 18013G27KT 10SM VCTS SCT032 BKN120 20/16 A2970 RMK AO2 LTG DSNT E AND NW
KMYZ 210515Z AUTO 17020G28KT 10SM SCT032 SCT120 20/15 A2970 RMK AO2 LTG DSNT NE
KMYZ 210455Z AUTO 18020G28KT 10SM SCT110 20/16 A2970 RMK AO2 LTG DSNT SE AND SW
KMYZ 210435Z AUTO 17017G28KT 10SM SCT110 20/15 A2971 RMK AO2
KMYZ 210415Z AUTO 17016G24KT 10SM SCT110 20/15 A2971 RMK AO2
KMYZ 210355Z AUTO 17015G19KT 10SM CLR 20/15 A2973 RMK AO2
KMYZ 210335Z AUTO 17016G22KT 10SM CLR 20/15 A2973 RMK AO2
KMYZ 210315Z AUTO 16012G22KT 10SM SCT046 20/15 A2973 RMK AO2
KMYZ 210255Z AUTO 17016G22KT 10SM SCT050 20/15 A2974 RMK AO2
KMYZ 210235Z AUTO 16019G26KT 10SM BKN050 20/15 A2974 RMK AO2
KMYZ 210215Z AUTO 16015G23KT 10SM OVC050 20/15 A2975 RMK AO2
KMYZ 210155Z AUTO 16013G19KT 10SM OVC050 20/14 A2975 RMK AO2
KMYZ 210135Z AUTO 17015G20KT 10SM OVC050 20/14 A2975 RMK AO2
KMYZ 210115Z AUTO 16014G20KT 10SM OVC050 21/14 A2975 RMK AO2
KMYZ 210055Z AUTO 16016G22KT 10SM BKN050 21/15 A2975 RMK AO2
KMYZ 210035Z AUTO 16017G20KT 10SM SCT060 21/15 A2973 RMK AO2
KMYZ 210015Z AUTO 16015G24KT 10SM BKN050 OVC060 22/15 A2973 RMK AO2
KMYZ 202355Z AUTO 15012G17KT 10SM BKN050 OVC060 22/15 A2974 RMK AO2
KMYZ 202335Z AUTO 16014G18KT 10SM SCT049 SCT060 22/15 A2974 RMK AO2
KMYZ 202315Z AUTO 16013G22KT 10SM SCT065 22/15 A2974 RMK AO2
KMYZ 202255Z AUTO 17015G26KT 10SM SCT048 BKN065 23/15 A2974 RMK AO2
KMYZ 202235Z AUTO 17015G27KT 10SM SCT048 SCT055 BKN065 24/15 A2974 RMK AO2
KMYZ 202215Z AUTO 17014G21KT 10SM SCT048 BKN060 23/15 A2975 RMK AO2
KMYZ 202155Z AUTO 17018G29KT 10SM SCT046 SCT050 25/15 A2975 RMK AO2
KMYZ 202135Z AUTO 17018G25KT 10SM SCT046 SCT050 25/16 A2975 RMK AO2
KMYZ 202115Z AUTO 17016G33KT 10SM SCT046 SCT050 24/15 A2975 RMK AO2
KMYZ 202055Z AUTO 17020G26KT 10SM SCT045 SCT050 24/16 A2976 RMK AO2
KMYZ 202035Z AUTO 17020G30KT 10SM SCT044 SCT050 25/16 A2976 RMK AO2
KMYZ 202015Z AUTO 17022G30KT 10SM BKN044 BKN050 24/16 A2977 RMK AO2
KMYZ 201955Z AUTO 17018G26KT 10SM BKN044 24/16 A2977 RMK AO2
KMYZ 201935Z AUTO 18021G32KT 10SM OVC042 23/15 A2979 RMK AO2
KMYZ 201915Z AUTO 18018G29KT 10SM BKN038 24/16 A2980 RMK AO2
KMYZ 201855Z AUTO 17013G26KT 10SM BKN040 24/16 A2981 RMK AO2
KMYZ 201835Z AUTO 17020G26KT 10SM BKN040 23/15 A2983 RMK AO2
KMYZ 201815Z AUTO 17019G28KT 10SM CLR 24/15 A2984 RMK AO2
KMYZ 201755Z AUTO 18016G24KT 10SM CLR 23/15 A2985 RMK AO2
KMYZ 201735Z AUTO 18015G24KT 10SM CLR 22/15 A2987 RMK AO2
KMYZ 201715Z AUTO 18020G25KT 10SM CLR 22/15 A2988 RMK AO2
KMYZ 201655Z AUTO 18016G24KT 10SM CLR 22/15 A2990 RMK AO2
KMYZ 201635Z AUTO 19018G26KT 10SM CLR 21/14 A2991 RMK AO2
KMYZ 201615Z AUTO 17018G21KT 10SM CLR 21/14 A2992 RMK AO2
KMYZ 201555Z AUTO 18016G22KT 10SM CLR 20/13 A2993 RMK AO2
KMYZ 201535Z AUTO 18015G21KT 10SM CLR 20/13 A2994 RMK AO2
KMYZ 201515Z AUTO 18016G20KT 10SM CLR 18/13 A2994 RMK AO2
KMYZ 201455Z AUTO 17014G19KT 10SM CLR 16/12 A2995 RMK AO2
KMYZ 201435Z AUTO 17016G21KT 10SM CLR 16/12 A2996 RMK AO2
KMYZ 201415Z AUTO 17016G19KT 10SM CLR 17/12 A2996 RMK AO2
KMYZ 201355Z AUTO 16012G17KT 10SM CLR 16/12 A2997 RMK AO2
KMYZ 201335Z AUTO 16009G14KT 10SM CLR 15/11 A2997 RMK AO2
KMYZ 201315Z AUTO 16009KT 10SM CLR 14/11 A2997 RMK AO2